sensor_id;sensor_type;location;lat;lon;timestamp;P1;durP1;ratioP1;P2;durP2;ratioP2
30824;SDS011;17550;45.486;12.222;2023-04-16T00:02:12;15.23;;;7.10;;
30824;SDS011;17550;45.486;12.222;2023-04-16T00:04:39;9.80;;;6.07;;
30824;SDS011;17550;45.486;12.222;2023-04-16T00:07:04;9.23;;;6.00;;
30824;SDS011;17550;45.486;12.222;2023-04-16T00:09:30;8.50;;;5.85;;
30824;SDS011;17550;45.486;12.222;2023-04-16T00:11:56;14.10;;;5.93;;
30824;SDS011;17550;45.486;12.222;2023-04-16T00:14:22;9.55;;;6.00;;
30824;SDS011;17550;45.486;12.222;2023-04-16T00:16:47;9.35;;;5.90;;
30824;SDS011;17550;45.486;12.222;2023-04-16T00:19:13;13.00;;;5.57;;
30824;SDS011;17550;45.486;12.222;2023-04-16T00:21:39;8.98;;;5.63;;
30824;SDS011;17550;45.486;12.222;2023-04-16T00:24:05;10.10;;;5.85;;
30824;SDS011;17550;45.486;12.222;2023-04-16T00:26:30;11.82;;;5.88;;
30824;SDS011;17550;45.486;12.222;2023-04-16T00:28:56;11.27;;;5.30;;
30824;SDS011;17550;45.486;12.222;2023-04-16T00:31:28;11.75;;;6.20;;
30824;SDS011;17550;45.486;12.222;2023-04-16T00:33:55;10.20;;;5.75;;
30824;SDS011;17550;45.486;12.222;2023-04-16T00:36:22;8.70;;;5.95;;
30824;SDS011;17550;45.486;12.222;2023-04-16T00:38:49;12.15;;;5.80;;
30824;SDS011;17550;45.486;12.222;2023-04-16T00:41:15;8.85;;;5.97;;
30824;SDS011;17550;45.486;12.222;2023-04-16T00:43:41;10.43;;;6.63;;
30824;SDS011;17550;45.486;12.222;2023-04-16T00:46:06;12.63;;;6.63;;
30824;SDS011;17550;45.486;12.222;2023-04-16T00:48:32;10.45;;;6.70;;
30824;SDS011;17550;45.486;12.222;2023-04-16T00:51:00;12.07;;;6.07;;
30824;SDS011;17550;45.486;12.222;2023-04-16T00:53:26;10.38;;;6.82;;
30824;SDS011;17550;45.486;12.222;2023-04-16T00:55:52;11.68;;;6.28;;
30824;SDS011;17550;45.486;12.222;2023-04-16T00:58:20;12.05;;;7.05;;
30824;SDS011;17550;45.486;12.222;2023-04-16T01:00:46;12.40;;;6.60;;
30824;SDS011;17550;45.486;12.222;2023-04-16T01:03:11;11.60;;;6.28;;
30824;SDS011;17550;45.486;12.222;2023-04-16T01:05:37;11.55;;;6.18;;
30824;SDS011;17550;45.486;12.222;2023-04-16T01:08:03;10.02;;;6.57;;
30824;SDS011;17550;45.486;12.222;2023-04-16T01:10:29;13.82;;;7.07;;
30824;SDS011;17550;45.486;12.222;2023-04-16T01:12:55;10.32;;;5.82;;
30824;SDS011;17550;45.486;12.222;2023-04-16T01:15:20;9.68;;;6.63;;
30824;SDS011;17550;45.486;12.222;2023-04-16T01:17:46;9.80;;;5.93;;
30824;SDS011;17550;45.486;12.222;2023-04-16T01:20:12;12.00;;;5.72;;
30824;SDS011;17550;45.486;12.222;2023-04-16T01:22:38;9.60;;;6.72;;
30824;SDS011;17550;45.486;12.222;2023-04-16T01:25:04;9.05;;;6.45;;
30824;SDS011;17550;45.486;12.222;2023-04-16T01:27:30;12.60;;;6.78;;
30824;SDS011;17550;45.486;12.222;2023-04-16T01:29:56;10.60;;;6.45;;
30824;SDS011;17550;45.486;12.222;2023-04-16T01:32:22;11.35;;;6.45;;
30824;SDS011;17550;45.486;12.222;2023-04-16T01:34:48;9.07;;;5.97;;
30824;SDS011;17550;45.486;12.222;2023-04-16T01:37:13;9.35;;;6.10;;
30824;SDS011;17550;45.486;12.222;2023-04-16T01:39:39;12.32;;;6.53;;
30824;SDS011;17550;45.486;12.222;2023-04-16T01:42:05;10.13;;;6.43;;
30824;SDS011;17550;45.486;12.222;2023-04-16T01:44:31;14.23;;;6.40;;
30824;SDS011;17550;45.486;12.222;2023-04-16T01:46:56;9.73;;;6.30;;
30824;SDS011;17550;45.486;12.222;2023-04-16T01:49:22;14.80;;;6.93;;
30824;SDS011;17550;45.486;12.222;2023-04-16T01:51:48;10.75;;;6.43;;
30824;SDS011;17550;45.486;12.222;2023-04-16T01:54:14;12.63;;;6.43;;
30824;SDS011;17550;45.486;12.222;2023-04-16T01:56:39;10.73;;;6.65;;
30824;SDS011;17550;45.486;12.222;2023-04-16T01:59:05;7.25;;;5.43;;
30824;SDS011;17550;45.486;12.222;2023-04-16T02:01:31;13.68;;;6.80;;
30824;SDS011;17550;45.486;12.222;2023-04-16T02:03:57;11.85;;;6.95;;
30824;SDS011;17550;45.486;12.222;2023-04-16T02:06:22;10.73;;;6.53;;
30824;SDS011;17550;45.486;12.222;2023-04-16T02:08:48;11.57;;;6.32;;
30824;SDS011;17550;45.486;12.222;2023-04-16T02:11:14;10.80;;;6.43;;
30824;SDS011;17550;45.486;12.222;2023-04-16T02:13:40;17.38;;;7.15;;
30824;SDS011;17550;45.486;12.222;2023-04-16T02:16:06;12.82;;;6.90;;
30824;SDS011;17550;45.486;12.222;2023-04-16T02:18:32;9.20;;;6.53;;
30824;SDS011;17550;45.486;12.222;2023-04-16T02:20:58;14.50;;;7.97;;
30824;SDS011;17550;45.486;12.222;2023-04-16T02:23:24;9.93;;;6.90;;
30824;SDS011;17550;45.486;12.222;2023-04-16T02:25:50;14.65;;;7.50;;
30824;SDS011;17550;45.486;12.222;2023-04-16T02:28:16;10.93;;;6.72;;
30824;SDS011;17550;45.486;12.222;2023-04-16T02:30:42;11.00;;;7.72;;
30824;SDS011;17550;45.486;12.222;2023-04-16T02:33:09;9.30;;;6.38;;
30824;SDS011;17550;45.486;12.222;2023-04-16T02:35:35;8.60;;;6.63;;
30824;SDS011;17550;45.486;12.222;2023-04-16T02:38:02;10.57;;;6.35;;
30824;SDS011;17550;45.486;12.222;2023-04-16T02:40:29;14.43;;;7.68;;
30824;SDS011;17550;45.486;12.222;2023-04-16T02:42:55;12.20;;;7.57;;
30824;SDS011;17550;45.486;12.222;2023-04-16T02:45:22;12.00;;;6.43;;
30824;SDS011;17550;45.486;12.222;2023-04-16T02:47:49;11.65;;;6.50;;
30824;SDS011;17550;45.486;12.222;2023-04-16T02:50:15;12.38;;;7.10;;
30824;SDS011;17550;45.486;12.222;2023-04-16T02:52:41;10.25;;;6.22;;
30824;SDS011;17550;45.486;12.222;2023-04-16T02:55:08;9.98;;;6.03;;
30824;SDS011;17550;45.486;12.222;2023-04-16T02:57:34;12.77;;;6.32;;
30824;SDS011;17550;45.486;12.222;2023-04-16T03:00:00;10.40;;;6.45;;
30824;SDS011;17550;45.486;12.222;2023-04-16T03:02:28;10.20;;;6.82;;
30824;SDS011;17550;45.486;12.222;2023-04-16T03:04:54;12.15;;;7.18;;
30824;SDS011;17550;45.486;12.222;2023-04-16T03:07:19;11.23;;;6.57;;
30824;SDS011;17550;45.486;12.222;2023-04-16T03:09:45;9.85;;;6.53;;
30824;SDS011;17550;45.486;12.222;2023-04-16T03:12:11;12.15;;;6.47;;
30824;SDS011;17550;45.486;12.222;2023-04-16T03:14:37;12.93;;;7.25;;
30824;SDS011;17550;45.486;12.222;2023-04-16T03:17:02;10.68;;;6.85;;
30824;SDS011;17550;45.486;12.222;2023-04-16T03:19:28;10.43;;;6.75;;
30824;SDS011;17550;45.486;12.222;2023-04-16T03:21:54;8.77;;;6.30;;
30824;SDS011;17550;45.486;12.222;2023-04-16T03:24:20;10.32;;;6.53;;
30824;SDS011;17550;45.486;12.222;2023-04-16T03:26:45;9.27;;;6.43;;
30824;SDS011;17550;45.486;12.222;2023-04-16T03:29:11;9.60;;;6.22;;
30824;SDS011;17550;45.486;12.222;2023-04-16T03:31:37;8.57;;;5.80;;
30824;SDS011;17550;45.486;12.222;2023-04-16T03:34:02;12.70;;;7.93;;
30824;SDS011;17550;45.486;12.222;2023-04-16T03:36:28;18.10;;;8.38;;
30824;SDS011;17550;45.486;12.222;2023-04-16T03:38:55;13.40;;;8.60;;
30824;SDS011;17550;45.486;12.222;2023-04-16T03:41:20;14.55;;;8.43;;
30824;SDS011;17550;45.486;12.222;2023-04-16T03:43:46;12.00;;;7.32;;
30824;SDS011;17550;45.486;12.222;2023-04-16T03:46:11;14.88;;;8.07;;
30824;SDS011;17550;45.486;12.222;2023-04-16T03:48:37;13.88;;;8.48;;
30824;SDS011;17550;45.486;12.222;2023-04-16T03:51:03;18.08;;;9.38;;
30824;SDS011;17550;45.486;12.222;2023-04-16T03:53:29;16.92;;;8.65;;
30824;SDS011;17550;45.486;12.222;2023-04-16T03:55:54;16.25;;;9.15;;
30824;SDS011;17550;45.486;12.222;2023-04-16T03:58:20;14.77;;;8.48;;
30824;SDS011;17550;45.486;12.222;2023-04-16T04:00:46;15.43;;;9.15;;
30824;SDS011;17550;45.486;12.222;2023-04-16T04:03:12;72.72;;;26.92;;
30824;SDS011;17550;45.486;12.222;2023-04-16T04:05:40;26.08;;;12.35;;
30824;SDS011;17550;45.486;12.222;2023-04-16T04:08:06;20.30;;;10.73;;
30824;SDS011;17550;45.486;12.222;2023-04-16T04:10:33;23.98;;;11.45;;
30824;SDS011;17550;45.486;12.222;2023-04-16T04:12:59;20.70;;;11.30;;
30824;SDS011;17550;45.486;12.222;2023-04-16T04:15:27;16.70;;;10.82;;
30824;SDS011;17550;45.486;12.222;2023-04-16T04:17:52;18.52;;;11.75;;
30824;SDS011;17550;45.486;12.222;2023-04-16T04:20:19;18.90;;;10.65;;
30824;SDS011;17550;45.486;12.222;2023-04-16T04:22:45;17.45;;;10.32;;
30824;SDS011;17550;45.486;12.222;2023-04-16T04:25:10;16.70;;;9.68;;
30824;SDS011;17550;45.486;12.222;2023-04-16T04:27:36;14.43;;;9.30;;
30824;SDS011;17550;45.486;12.222;2023-04-16T04:30:02;19.17;;;9.80;;
30824;SDS011;17550;45.486;12.222;2023-04-16T04:32:29;15.65;;;9.80;;
30824;SDS011;17550;45.486;12.222;2023-04-16T04:34:55;17.70;;;10.13;;
30824;SDS011;17550;45.486;12.222;2023-04-16T04:37:21;18.30;;;9.98;;
30824;SDS011;17550;45.486;12.222;2023-04-16T04:39:47;14.98;;;10.25;;
30824;SDS011;17550;45.486;12.222;2023-04-16T04:42:14;15.05;;;10.18;;
30824;SDS011;17550;45.486;12.222;2023-04-16T04:44:41;12.70;;;9.90;;
30824;SDS011;17550;45.486;12.222;2023-04-16T04:47:06;12.25;;;9.23;;
30824;SDS011;17550;45.486;12.222;2023-04-16T04:49:32;12.90;;;9.45;;
30824;SDS011;17550;45.486;12.222;2023-04-16T04:51:58;16.88;;;10.02;;
30824;SDS011;17550;45.486;12.222;2023-04-16T04:54:23;13.27;;;8.95;;
30824;SDS011;17550;45.486;12.222;2023-04-16T04:56:49;10.45;;;7.80;;
30824;SDS011;17550;45.486;12.222;2023-04-16T04:59:16;12.95;;;7.72;;
30824;SDS011;17550;45.486;12.222;2023-04-16T05:01:42;14.73;;;8.27;;
30824;SDS011;17550;45.486;12.222;2023-04-16T05:04:07;10.02;;;7.53;;
30824;SDS011;17550;45.486;12.222;2023-04-16T05:06:33;14.38;;;8.07;;
30824;SDS011;17550;45.486;12.222;2023-04-16T05:08:59;11.07;;;6.68;;
30824;SDS011;17550;45.486;12.222;2023-04-16T05:11:25;8.95;;;6.70;;
30824;SDS011;17550;45.486;12.222;2023-04-16T05:13:50;11.75;;;7.75;;
30824;SDS011;17550;45.486;12.222;2023-04-16T05:16:16;8.68;;;6.40;;
30824;SDS011;17550;45.486;12.222;2023-04-16T05:18:42;8.80;;;6.20;;
30824;SDS011;17550;45.486;12.222;2023-04-16T05:21:07;10.63;;;6.43;;
30824;SDS011;17550;45.486;12.222;2023-04-16T05:23:33;9.93;;;6.72;;
30824;SDS011;17550;45.486;12.222;2023-04-16T05:25:59;10.68;;;6.82;;
30824;SDS011;17550;45.486;12.222;2023-04-16T05:28:24;7.88;;;5.90;;
30824;SDS011;17550;45.486;12.222;2023-04-16T05:30:50;7.63;;;5.60;;
30824;SDS011;17550;45.486;12.222;2023-04-16T05:33:16;8.88;;;5.82;;
30824;SDS011;17550;45.486;12.222;2023-04-16T05:35:41;9.77;;;5.65;;
30824;SDS011;17550;45.486;12.222;2023-04-16T05:38:07;10.55;;;6.45;;
30824;SDS011;17550;45.486;12.222;2023-04-16T05:40:33;9.85;;;6.78;;
30824;SDS011;17550;45.486;12.222;2023-04-16T05:42:58;8.93;;;6.97;;
30824;SDS011;17550;45.486;12.222;2023-04-16T05:45:24;11.63;;;6.60;;
30824;SDS011;17550;45.486;12.222;2023-04-16T05:47:50;12.80;;;7.57;;
30824;SDS011;17550;45.486;12.222;2023-04-16T05:50:15;10.60;;;8.10;;
30824;SDS011;17550;45.486;12.222;2023-04-16T05:52:41;12.52;;;7.82;;
30824;SDS011;17550;45.486;12.222;2023-04-16T05:55:07;11.25;;;7.22;;
30824;SDS011;17550;45.486;12.222;2023-04-16T05:57:33;9.32;;;7.07;;
30824;SDS011;17550;45.486;12.222;2023-04-16T05:59:58;12.32;;;7.53;;
30824;SDS011;17550;45.486;12.222;2023-04-16T06:02:24;11.98;;;7.50;;
30824;SDS011;17550;45.486;12.222;2023-04-16T06:04:50;10.43;;;7.18;;
30824;SDS011;17550;45.486;12.222;2023-04-16T06:07:16;8.65;;;7.03;;
30824;SDS011;17550;45.486;12.222;2023-04-16T06:09:41;10.52;;;7.13;;
30824;SDS011;17550;45.486;12.222;2023-04-16T06:12:07;8.98;;;5.88;;
30824;SDS011;17550;45.486;12.222;2023-04-16T06:14:33;14.35;;;6.72;;
30824;SDS011;17550;45.486;12.222;2023-04-16T06:16:59;9.50;;;6.10;;
30824;SDS011;17550;45.486;12.222;2023-04-16T06:19:25;8.00;;;5.90;;
30824;SDS011;17550;45.486;12.222;2023-04-16T06:21:51;9.52;;;5.45;;
30824;SDS011;17550;45.486;12.222;2023-04-16T06:24:17;10.05;;;6.25;;
30824;SDS011;17550;45.486;12.222;2023-04-16T06:26:48;13.73;;;5.95;;
30824;SDS011;17550;45.486;12.222;2023-04-16T06:29:14;9.43;;;5.10;;
30824;SDS011;17550;45.486;12.222;2023-04-16T06:31:39;10.25;;;6.85;;
30824;SDS011;17550;45.486;12.222;2023-04-16T06:34:05;9.38;;;5.85;;
30824;SDS011;17550;45.486;12.222;2023-04-16T06:36:31;7.38;;;5.25;;
30824;SDS011;17550;45.486;12.222;2023-04-16T06:38:56;9.23;;;5.25;;
30824;SDS011;17550;45.486;12.222;2023-04-16T06:41:22;7.32;;;5.03;;
30824;SDS011;17550;45.486;12.222;2023-04-16T06:43:49;7.00;;;4.97;;
30824;SDS011;17550;45.486;12.222;2023-04-16T06:46:15;7.35;;;5.22;;
30824;SDS011;17550;45.486;12.222;2023-04-16T06:48:41;8.80;;;4.78;;
30824;SDS011;17550;45.486;12.222;2023-04-16T06:51:06;8.85;;;6.03;;
30824;SDS011;17550;45.486;12.222;2023-04-16T06:53:32;7.15;;;5.47;;
30824;SDS011;17550;45.486;12.222;2023-04-16T06:55:58;8.38;;;4.97;;
30824;SDS011;17550;45.486;12.222;2023-04-16T06:58:24;7.60;;;4.65;;
30824;SDS011;17550;45.486;12.222;2023-04-16T07:00:51;11.32;;;5.03;;
30824;SDS011;17550;45.486;12.222;2023-04-16T07:03:17;9.60;;;5.00;;
30824;SDS011;17550;45.486;12.222;2023-04-16T07:05:42;6.63;;;4.38;;
30824;SDS011;17550;45.486;12.222;2023-04-16T07:08:08;7.32;;;4.93;;
30824;SDS011;17550;45.486;12.222;2023-04-16T07:10:34;7.95;;;4.20;;
30824;SDS011;17550;45.486;12.222;2023-04-16T07:13:00;7.43;;;4.40;;
30824;SDS011;17550;45.486;12.222;2023-04-16T07:15:26;7.10;;;4.25;;
30824;SDS011;17550;45.486;12.222;2023-04-16T07:17:55;7.93;;;4.47;;
30824;SDS011;17550;45.486;12.222;2023-04-16T07:20:20;5.55;;;4.03;;
30824;SDS011;17550;45.486;12.222;2023-04-16T07:22:46;6.40;;;3.17;;
30824;SDS011;17550;45.486;12.222;2023-04-16T07:25:12;4.97;;;3.20;;
30824;SDS011;17550;45.486;12.222;2023-04-16T07:27:38;5.55;;;3.55;;
30824;SDS011;17550;45.486;12.222;2023-04-16T07:30:04;5.88;;;4.30;;
30824;SDS011;17550;45.486;12.222;2023-04-16T07:32:30;4.55;;;3.40;;
30824;SDS011;17550;45.486;12.222;2023-04-16T07:34:55;5.32;;;3.05;;
30824;SDS011;17550;45.486;12.222;2023-04-16T07:37:21;8.18;;;3.20;;
30824;SDS011;17550;45.486;12.222;2023-04-16T07:39:47;4.63;;;2.97;;
30824;SDS011;17550;45.486;12.222;2023-04-16T07:42:13;4.93;;;2.90;;
30824;SDS011;17550;45.486;12.222;2023-04-16T07:44:38;3.95;;;3.05;;
30824;SDS011;17550;45.486;12.222;2023-04-16T07:47:05;3.47;;;2.65;;
30824;SDS011;17550;45.486;12.222;2023-04-16T07:49:33;9.13;;;3.05;;
30824;SDS011;17550;45.486;12.222;2023-04-16T07:51:59;3.58;;;2.20;;
30824;SDS011;17550;45.486;12.222;2023-04-16T07:54:25;3.20;;;2.03;;
30824;SDS011;17550;45.486;12.222;2023-04-16T07:56:50;10.10;;;2.88;;
30824;SDS011;17550;45.486;12.222;2023-04-16T07:59:16;4.40;;;2.45;;
30824;SDS011;17550;45.486;12.222;2023-04-16T08:01:42;3.15;;;2.15;;
30824;SDS011;17550;45.486;12.222;2023-04-16T08:04:07;3.60;;;2.58;;
30824;SDS011;17550;45.486;12.222;2023-04-16T08:06:33;5.05;;;3.03;;
30824;SDS011;17550;45.486;12.222;2023-04-16T08:08:59;3.03;;;2.20;;
30824;SDS011;17550;45.486;12.222;2023-04-16T08:11:25;2.25;;;1.88;;
30824;SDS011;17550;45.486;12.222;2023-04-16T08:13:50;3.80;;;1.95;;
30824;SDS011;17550;45.486;12.222;2023-04-16T08:16:16;4.57;;;2.42;;
30824;SDS011;17550;45.486;12.222;2023-04-16T08:18:42;3.67;;;1.90;;
30824;SDS011;17550;45.486;12.222;2023-04-16T08:21:08;2.17;;;1.48;;
30824;SDS011;17550;45.486;12.222;2023-04-16T08:23:33;4.68;;;1.20;;
30824;SDS011;17550;45.486;12.222;2023-04-16T08:25:59;2.22;;;1.17;;
30824;SDS011;17550;45.486;12.222;2023-04-16T08:28:26;0.80;;;0.80;;
30824;SDS011;17550;45.486;12.222;2023-04-16T08:30:51;1.00;;;0.80;;
30824;SDS011;17550;45.486;12.222;2023-04-16T08:33:17;2.35;;;0.88;;
30824;SDS011;17550;45.486;12.222;2023-04-16T08:35:43;1.00;;;0.90;;
30824;SDS011;17550;45.486;12.222;2023-04-16T08:38:08;1.00;;;0.60;;
30824;SDS011;17550;45.486;12.222;2023-04-16T08:40:35;1.33;;;0.80;;
30824;SDS011;17550;45.486;12.222;2023-04-16T08:43:04;1.42;;;1.08;;
30824;SDS011;17550;45.486;12.222;2023-04-16T08:45:35;1.80;;;1.17;;
30824;SDS011;17550;45.486;12.222;2023-04-16T08:48:03;1.90;;;1.17;;
30824;SDS011;17550;45.486;12.222;2023-04-16T08:50:30;2.63;;;0.90;;
30824;SDS011;17550;45.486;12.222;2023-04-16T08:52:59;1.55;;;0.70;;
30824;SDS011;17550;45.486;12.222;2023-04-16T08:58:05;1.95;;;0.90;;
30824;SDS011;17550;45.486;12.222;2023-04-16T09:00:37;1.60;;;1.10;;
30824;SDS011;17550;45.486;12.222;2023-04-16T09:03:05;2.22;;;1.00;;
30824;SDS011;17550;45.486;12.222;2023-04-16T09:05:32;2.47;;;1.30;;
30824;SDS011;17550;45.486;12.222;2023-04-16T09:07:57;3.05;;;1.33;;
30824;SDS011;17550;45.486;12.222;2023-04-16T09:10:24;1.98;;;1.33;;
30824;SDS011;17550;45.486;12.222;2023-04-16T09:12:51;2.72;;;1.17;;
30824;SDS011;17550;45.486;12.222;2023-04-16T09:15:19;4.72;;;1.77;;
30824;SDS011;17550;45.486;12.222;2023-04-16T09:17:46;3.30;;;1.80;;
30824;SDS011;17550;45.486;12.222;2023-04-16T09:20:11;3.22;;;1.88;;
30824;SDS011;17550;45.486;12.222;2023-04-16T09:22:37;2.80;;;1.98;;
30824;SDS011;17550;45.486;12.222;2023-04-16T09:25:06;2.53;;;1.40;;
30824;SDS011;17550;45.486;12.222;2023-04-16T09:27:32;1.60;;;0.95;;
30824;SDS011;17550;45.486;12.222;2023-04-16T09:29:58;1.15;;;0.95;;
30824;SDS011;17550;45.486;12.222;2023-04-16T09:32:25;2.45;;;1.50;;
30824;SDS011;17550;45.486;12.222;2023-04-16T09:37:28;2.38;;;1.40;;
30824;SDS011;17550;45.486;12.222;2023-04-16T09:39:57;1.88;;;1.27;;
30824;SDS011;17550;45.486;12.222;2023-04-16T09:44:55;1.30;;;1.05;;
30824;SDS011;17550;45.486;12.222;2023-04-16T09:47:22;2.60;;;1.17;;
30824;SDS011;17550;45.486;12.222;2023-04-16T09:49:49;1.20;;;1.10;;
30824;SDS011;17550;45.486;12.222;2023-04-16T09:52:19;1.70;;;1.20;;
30824;SDS011;17550;45.486;12.222;2023-04-16T09:57:21;1.98;;;1.20;;
30824;SDS011;17550;45.486;12.222;2023-04-16T09:59:51;1.50;;;0.90;;
30824;SDS011;17550;45.486;12.222;2023-04-16T10:02:18;1.35;;;1.15;;
30824;SDS011;17550;45.486;12.222;2023-04-16T10:04:47;1.27;;;0.85;;
30824;SDS011;17550;45.486;12.222;2023-04-16T10:07:15;2.10;;;1.00;;
30824;SDS011;17550;45.486;12.222;2023-04-16T10:09:41;1.52;;;1.00;;
30824;SDS011;17550;45.486;12.222;2023-04-16T10:12:07;1.33;;;0.85;;
30824;SDS011;17550;45.486;12.222;2023-04-16T10:14:33;4.20;;;1.08;;
30824;SDS011;17550;45.486;12.222;2023-04-16T10:16:59;2.83;;;1.85;;
30824;SDS011;17550;45.486;12.222;2023-04-16T10:19:28;2.88;;;0.90;;
30824;SDS011;17550;45.486;12.222;2023-04-16T10:21:57;1.60;;;1.20;;
30824;SDS011;17550;45.486;12.222;2023-04-16T10:24:33;1.52;;;1.00;;
30824;SDS011;17550;45.486;12.222;2023-04-16T10:26:59;2.00;;;1.15;;
30824;SDS011;17550;45.486;12.222;2023-04-16T10:29:26;2.45;;;0.70;;
30824;SDS011;17550;45.486;12.222;2023-04-16T10:31:53;2.65;;;0.90;;
30824;SDS011;17550;45.486;12.222;2023-04-16T10:34:21;4.35;;;1.15;;
30824;SDS011;17550;45.486;12.222;2023-04-16T10:36:52;1.17;;;1.00;;
30824;SDS011;17550;45.486;12.222;2023-04-16T10:39:26;1.20;;;0.80;;
30824;SDS011;17550;45.486;12.222;2023-04-16T10:42:06;1.60;;;1.00;;
30824;SDS011;17550;45.486;12.222;2023-04-16T10:44:36;1.67;;;0.80;;
30824;SDS011;17550;45.486;12.222;2023-04-16T10:47:02;1.65;;;0.90;;
30824;SDS011;17550;45.486;12.222;2023-04-16T10:49:35;2.55;;;1.27;;
30824;SDS011;17550;45.486;12.222;2023-04-16T10:52:08;1.70;;;1.30;;
30824;SDS011;17550;45.486;12.222;2023-04-16T10:54:36;2.22;;;1.02;;
30824;SDS011;17550;45.486;12.222;2023-04-16T10:57:03;1.88;;;1.00;;
30824;SDS011;17550;45.486;12.222;2023-04-16T10:59:43;2.90;;;1.88;;
30824;SDS011;17550;45.486;12.222;2023-04-16T11:02:13;2.10;;;1.15;;
30824;SDS011;17550;45.486;12.222;2023-04-16T11:04:44;1.70;;;1.20;;
30824;SDS011;17550;45.486;12.222;2023-04-16T11:07:20;3.42;;;0.82;;
30824;SDS011;17550;45.486;12.222;2023-04-16T11:09:59;1.25;;;1.08;;
30824;SDS011;17550;45.486;12.222;2023-04-16T11:14:57;3.20;;;2.08;;
30824;SDS011;17550;45.486;12.222;2023-04-16T11:17:38;1.80;;;1.35;;
30824;SDS011;17550;45.486;12.222;2023-04-16T11:20:06;2.20;;;1.60;;
30824;SDS011;17550;45.486;12.222;2023-04-16T11:22:36;1.58;;;1.10;;
30824;SDS011;17550;45.486;12.222;2023-04-16T11:25:03;1.75;;;1.15;;
30824;SDS011;17550;45.486;12.222;2023-04-16T11:27:29;2.08;;;1.02;;
30824;SDS011;17550;45.486;12.222;2023-04-16T11:29:58;1.98;;;1.48;;
30824;SDS011;17550;45.486;12.222;2023-04-16T11:32:25;2.53;;;1.42;;
30824;SDS011;17550;45.486;12.222;2023-04-16T11:34:52;2.20;;;1.38;;
30824;SDS011;17550;45.486;12.222;2023-04-16T11:37:19;1.48;;;1.38;;
30824;SDS011;17550;45.486;12.222;2023-04-16T11:39:47;4.82;;;3.00;;
30824;SDS011;17550;45.486;12.222;2023-04-16T11:42:20;2.35;;;1.50;;
30824;SDS011;17550;45.486;12.222;2023-04-16T11:44:50;1.98;;;1.67;;
30824;SDS011;17550;45.486;12.222;2023-04-16T11:47:18;2.10;;;1.60;;
30824;SDS011;17550;45.486;12.222;2023-04-16T11:49:43;3.25;;;2.30;;
30824;SDS011;17550;45.486;12.222;2023-04-16T11:52:09;1.98;;;1.50;;
30824;SDS011;17550;45.486;12.222;2023-04-16T11:54:35;2.17;;;1.55;;
30824;SDS011;17550;45.486;12.222;2023-04-16T11:57:02;1.75;;;1.50;;
30824;SDS011;17550;45.486;12.222;2023-04-16T11:59:31;1.60;;;1.42;;
30824;SDS011;17550;45.486;12.222;2023-04-16T12:01:57;2.95;;;1.75;;
30824;SDS011;17550;45.486;12.222;2023-04-16T12:04:26;4.43;;;1.70;;
30824;SDS011;17550;45.486;12.222;2023-04-16T12:07:06;1.40;;;1.23;;
30824;SDS011;17550;45.486;12.222;2023-04-16T12:09:39;2.13;;;1.40;;
30824;SDS011;17550;45.486;12.222;2023-04-16T12:12:24;1.88;;;1.55;;
30824;SDS011;17550;45.486;12.222;2023-04-16T12:14:51;1.90;;;1.27;;
30824;SDS011;17550;45.486;12.222;2023-04-16T12:17:18;2.42;;;1.35;;
30824;SDS011;17550;45.486;12.222;2023-04-16T12:19:50;2.47;;;1.40;;
30824;SDS011;17550;45.486;12.222;2023-04-16T12:22:26;1.55;;;1.13;;
30824;SDS011;17550;45.486;12.222;2023-04-16T12:30:15;2.03;;;1.45;;
30824;SDS011;17550;45.486;12.222;2023-04-16T12:32:43;3.30;;;1.30;;
30824;SDS011;17550;45.486;12.222;2023-04-16T12:35:10;2.70;;;1.50;;
30824;SDS011;17550;45.486;12.222;2023-04-16T12:37:36;1.52;;;1.20;;
30824;SDS011;17550;45.486;12.222;2023-04-16T12:40:03;2.10;;;1.30;;
30824;SDS011;17550;45.486;12.222;2023-04-16T12:42:30;2.92;;;1.20;;
30824;SDS011;17550;45.486;12.222;2023-04-16T12:45:03;2.30;;;1.35;;
30824;SDS011;17550;45.486;12.222;2023-04-16T12:47:30;2.72;;;1.45;;
30824;SDS011;17550;45.486;12.222;2023-04-16T12:49:56;3.75;;;1.52;;
30824;SDS011;17550;45.486;12.222;2023-04-16T12:52:22;1.40;;;1.15;;
30824;SDS011;17550;45.486;12.222;2023-04-16T12:54:49;1.38;;;1.00;;
30824;SDS011;17550;45.486;12.222;2023-04-16T12:57:15;1.63;;;1.27;;
30824;SDS011;17550;45.486;12.222;2023-04-16T12:59:41;3.28;;;1.27;;
30824;SDS011;17550;45.486;12.222;2023-04-16T13:02:06;1.60;;;1.15;;
30824;SDS011;17550;45.486;12.222;2023-04-16T13:04:32;2.25;;;1.20;;
30824;SDS011;17550;45.486;12.222;2023-04-16T13:06:58;2.03;;;1.30;;
30824;SDS011;17550;45.486;12.222;2023-04-16T13:09:24;2.80;;;1.38;;
30824;SDS011;17550;45.486;12.222;2023-04-16T13:11:51;2.65;;;1.00;;
30824;SDS011;17550;45.486;12.222;2023-04-16T13:14:16;2.20;;;0.70;;
30824;SDS011;17550;45.486;12.222;2023-04-16T13:16:43;4.35;;;1.13;;
30824;SDS011;17550;45.486;12.222;2023-04-16T13:19:08;3.10;;;1.10;;
30824;SDS011;17550;45.486;12.222;2023-04-16T13:21:34;1.50;;;0.90;;
30824;SDS011;17550;45.486;12.222;2023-04-16T13:24:00;1.60;;;0.88;;
30824;SDS011;17550;45.486;12.222;2023-04-16T13:26:26;1.30;;;0.98;;
30824;SDS011;17550;45.486;12.222;2023-04-16T13:28:51;1.23;;;0.90;;
30824;SDS011;17550;45.486;12.222;2023-04-16T13:31:17;2.40;;;1.10;;
30824;SDS011;17550;45.486;12.222;2023-04-16T13:33:45;1.70;;;1.13;;
30824;SDS011;17550;45.486;12.222;2023-04-16T13:36:12;1.02;;;0.80;;
30824;SDS011;17550;45.486;12.222;2023-04-16T13:38:38;2.63;;;1.00;;
30824;SDS011;17550;45.486;12.222;2023-04-16T13:41:03;1.35;;;0.80;;
30824;SDS011;17550;45.486;12.222;2023-04-16T13:43:30;2.97;;;0.90;;
30824;SDS011;17550;45.486;12.222;2023-04-16T13:45:56;1.05;;;0.63;;
30824;SDS011;17550;45.486;12.222;2023-04-16T13:48:22;1.30;;;0.70;;
30824;SDS011;17550;45.486;12.222;2023-04-16T13:50:48;1.75;;;0.70;;
30824;SDS011;17550;45.486;12.222;2023-04-16T13:53:14;0.57;;;0.50;;
30824;SDS011;17550;45.486;12.222;2023-04-16T13:55:40;1.33;;;0.60;;
30824;SDS011;17550;45.486;12.222;2023-04-16T13:58:07;0.98;;;0.70;;
30824;SDS011;17550;45.486;12.222;2023-04-16T14:00:32;0.80;;;0.60;;
30824;SDS011;17550;45.486;12.222;2023-04-16T14:02:58;0.63;;;0.60;;
30824;SDS011;17550;45.486;12.222;2023-04-16T14:05:24;0.65;;;0.65;;
30824;SDS011;17550;45.486;12.222;2023-04-16T14:07:50;3.63;;;0.85;;
30824;SDS011;17550;45.486;12.222;2023-04-16T14:10:15;1.23;;;0.80;;
30824;SDS011;17550;45.486;12.222;2023-04-16T14:12:42;2.03;;;0.77;;
30824;SDS011;17550;45.486;12.222;2023-04-16T14:15:08;1.05;;;0.68;;
30824;SDS011;17550;45.486;12.222;2023-04-16T14:17:35;3.72;;;1.05;;
30824;SDS011;17550;45.486;12.222;2023-04-16T14:20:02;1.30;;;0.80;;
30824;SDS011;17550;45.486;12.222;2023-04-16T14:22:29;1.92;;;0.80;;
30824;SDS011;17550;45.486;12.222;2023-04-16T14:24:55;1.45;;;1.05;;
30824;SDS011;17550;45.486;12.222;2023-04-16T14:27:20;2.55;;;0.90;;
30824;SDS011;17550;45.486;12.222;2023-04-16T14:29:46;1.30;;;0.80;;
30824;SDS011;17550;45.486;12.222;2023-04-16T14:32:12;1.67;;;0.80;;
30824;SDS011;17550;45.486;12.222;2023-04-16T14:34:38;1.42;;;0.80;;
30824;SDS011;17550;45.486;12.222;2023-04-16T14:37:04;1.83;;;0.82;;
30824;SDS011;17550;45.486;12.222;2023-04-16T14:39:30;0.75;;;0.70;;
30824;SDS011;17550;45.486;12.222;2023-04-16T14:41:55;1.23;;;0.90;;
30824;SDS011;17550;45.486;12.222;2023-04-16T14:44:21;1.00;;;0.60;;